Terminal Aerodrome Forecast
Issued by NWS

Home | Current Version | Previous Version | Text Only | Print | Product List | Glossary On
Versions: 1 2 3 4 5 6 7 8 9 10 11 12 13 14 15 16 17 18 19 20 21 22 23 24
648
FTUS41 KPBZ 171842 AAA
TAFAGC
TAF AMD
KAGC 171842Z 1719/1818 21014G23KT P6SM BKN015 WS020/23035KT
     FM172030 24012G20KT P6SM -SHRA BKN020 WS020/24035KT
     FM172130 25012G20KT P6SM BKN025
     FM180200 25008KT P6SM OVC015
     FM181000 27010KT 4SM -SHRA BR BKN008
     FM181700 27011KT P6SM OVC015=

USA.gov is the U.S. government's official web portal to all federal, state and local government web resources and services.